sensor_id;sensor_type;location;lat;lon;timestamp;temperature;humidity
50955;DHT22;36966;48.064;-0.792;2024-02-21T00:01:07;17.90;55.00
50955;DHT22;36966;48.064;-0.792;2024-02-21T00:03:27;17.90;55.00
50955;DHT22;36966;48.064;-0.792;2024-02-21T00:05:46;17.90;55.00
50955;DHT22;36966;48.064;-0.792;2024-02-21T00:08:05;17.90;55.00
50955;DHT22;36966;48.064;-0.792;2024-02-21T00:10:25;17.90;55.00
50955;DHT22;36966;48.064;-0.792;2024-02-21T00:12:44;17.90;55.00
50955;DHT22;36966;48.064;-0.792;2024-02-21T00:15:03;17.80;55.00
50955;DHT22;36966;48.064;-0.792;2024-02-21T00:17:22;17.90;55.00
50955;DHT22;36966;48.064;-0.792;2024-02-21T00:19:42;17.90;55.00
50955;DHT22;36966;48.064;-0.792;2024-02-21T00:22:01;17.80;55.00
50955;DHT22;36966;48.064;-0.792;2024-02-21T00:24:20;17.80;55.00
50955;DHT22;36966;48.064;-0.792;2024-02-21T00:26:39;17.80;55.00
50955;DHT22;36966;48.064;-0.792;2024-02-21T00:28:58;17.80;55.10
50955;DHT22;36966;48.064;-0.792;2024-02-21T00:31:18;17.80;55.10
50955;DHT22;36966;48.064;-0.792;2024-02-21T00:33:37;17.80;55.10
50955;DHT22;36966;48.064;-0.792;2024-02-21T00:35:56;17.80;55.10
50955;DHT22;36966;48.064;-0.792;2024-02-21T00:38:16;17.80;55.10
50955;DHT22;36966;48.064;-0.792;2024-02-21T00:40:35;17.80;55.10
50955;DHT22;36966;48.064;-0.792;2024-02-21T00:42:54;17.80;55.10
50955;DHT22;36966;48.064;-0.792;2024-02-21T00:45:13;17.80;55.20
50955;DHT22;36966;48.064;-0.792;2024-02-21T00:47:32;17.80;55.20
50955;DHT22;36966;48.064;-0.792;2024-02-21T00:49:52;17.70;55.20
50955;DHT22;36966;48.064;-0.792;2024-02-21T00:52:11;17.80;55.20
50955;DHT22;36966;48.064;-0.792;2024-02-21T00:54:30;17.80;55.10
50955;DHT22;36966;48.064;-0.792;2024-02-21T00:56:50;17.70;55.10
50955;DHT22;36966;48.064;-0.792;2024-02-21T00:59:09;17.70;55.10
50955;DHT22;36966;48.064;-0.792;2024-02-21T01:01:28;17.70;55.10
50955;DHT22;36966;48.064;-0.792;2024-02-21T01:03:47;17.70;55.00
50955;DHT22;36966;48.064;-0.792;2024-02-21T01:06:07;17.70;55.00
50955;DHT22;36966;48.064;-0.792;2024-02-21T01:08:26;17.70;55.00
50955;DHT22;36966;48.064;-0.792;2024-02-21T01:10:45;17.70;55.00
50955;DHT22;36966;48.064;-0.792;2024-02-21T01:13:04;17.70;55.00
50955;DHT22;36966;48.064;-0.792;2024-02-21T01:15:24;17.70;55.00
50955;DHT22;36966;48.064;-0.792;2024-02-21T01:17:43;17.70;55.00
50955;DHT22;36966;48.064;-0.792;2024-02-21T01:20:03;17.70;55.10
50955;DHT22;36966;48.064;-0.792;2024-02-21T01:22:24;17.70;55.00
50955;DHT22;36966;48.064;-0.792;2024-02-21T01:24:43;17.70;55.10
50955;DHT22;36966;48.064;-0.792;2024-02-21T01:27:02;17.70;55.10
50955;DHT22;36966;48.064;-0.792;2024-02-21T01:29:22;17.70;55.10
50955;DHT22;36966;48.064;-0.792;2024-02-21T01:31:41;17.70;55.10
50955;DHT22;36966;48.064;-0.792;2024-02-21T01:34:00;17.70;55.10
50955;DHT22;36966;48.064;-0.792;2024-02-21T01:36:20;17.70;55.10
50955;DHT22;36966;48.064;-0.792;2024-02-21T01:38:39;17.70;55.20
50955;DHT22;36966;48.064;-0.792;2024-02-21T01:40:58;17.70;55.10
50955;DHT22;36966;48.064;-0.792;2024-02-21T01:43:18;17.70;55.10
50955;DHT22;36966;48.064;-0.792;2024-02-21T01:45:38;17.70;55.20
50955;DHT22;36966;48.064;-0.792;2024-02-21T01:47:57;17.70;55.10
50955;DHT22;36966;48.064;-0.792;2024-02-21T01:50:16;17.70;55.20
50955;DHT22;36966;48.064;-0.792;2024-02-21T01:52:36;17.70;55.20
50955;DHT22;36966;48.064;-0.792;2024-02-21T01:54:55;17.70;55.20
50955;DHT22;36966;48.064;-0.792;2024-02-21T01:57:14;17.70;55.20
50955;DHT22;36966;48.064;-0.792;2024-02-21T01:59:34;17.70;55.20
50955;DHT22;36966;48.064;-0.792;2024-02-21T02:01:55;17.70;55.20
50955;DHT22;36966;48.064;-0.792;2024-02-21T02:04:15;17.70;55.20
50955;DHT22;36966;48.064;-0.792;2024-02-21T02:06:35;17.70;55.20
50955;DHT22;36966;48.064;-0.792;2024-02-21T02:08:54;17.70;55.20
50955;DHT22;36966;48.064;-0.792;2024-02-21T02:11:13;17.70;55.20
50955;DHT22;36966;48.064;-0.792;2024-02-21T02:13:33;17.70;55.20
50955;DHT22;36966;48.064;-0.792;2024-02-21T02:15:52;17.70;55.20
50955;DHT22;36966;48.064;-0.792;2024-02-21T02:18:12;17.60;55.20
50955;DHT22;36966;48.064;-0.792;2024-02-21T02:20:31;17.70;55.20
50955;DHT22;36966;48.064;-0.792;2024-02-21T02:22:50;17.60;55.20
50955;DHT22;36966;48.064;-0.792;2024-02-21T02:25:09;17.60;55.10
50955;DHT22;36966;48.064;-0.792;2024-02-21T02:27:29;17.70;55.10
50955;DHT22;36966;48.064;-0.792;2024-02-21T02:29:48;17.70;55.00
50955;DHT22;36966;48.064;-0.792;2024-02-21T02:32:07;17.60;55.10
50955;DHT22;36966;48.064;-0.792;2024-02-21T02:34:27;17.70;55.00
50955;DHT22;36966;48.064;-0.792;2024-02-21T02:36:46;17.60;55.10
50955;DHT22;36966;48.064;-0.792;2024-02-21T02:39:07;17.70;55.00
50955;DHT22;36966;48.064;-0.792;2024-02-21T02:41:26;17.60;55.00
50955;DHT22;36966;48.064;-0.792;2024-02-21T02:43:46;17.60;55.00
50955;DHT22;36966;48.064;-0.792;2024-02-21T02:46:05;17.70;54.90
50955;DHT22;36966;48.064;-0.792;2024-02-21T02:48:24;17.70;54.90
50955;DHT22;36966;48.064;-0.792;2024-02-21T02:50:43;17.60;54.90
50955;DHT22;36966;48.064;-0.792;2024-02-21T02:53:03;17.70;54.90
50955;DHT22;36966;48.064;-0.792;2024-02-21T02:55:22;17.60;54.90
50955;DHT22;36966;48.064;-0.792;2024-02-21T02:57:42;17.60;54.80
50955;DHT22;36966;48.064;-0.792;2024-02-21T03:00:01;17.60;54.90
50955;DHT22;36966;48.064;-0.792;2024-02-21T03:02:21;17.60;54.90
50955;DHT22;36966;48.064;-0.792;2024-02-21T03:04:40;17.60;54.90
50955;DHT22;36966;48.064;-0.792;2024-02-21T03:07:00;17.60;54.80
50955;DHT22;36966;48.064;-0.792;2024-02-21T03:09:19;17.60;54.80
50955;DHT22;36966;48.064;-0.792;2024-02-21T03:11:39;17.60;54.80
50955;DHT22;36966;48.064;-0.792;2024-02-21T03:13:59;17.60;54.80
50955;DHT22;36966;48.064;-0.792;2024-02-21T03:16:19;17.60;54.80
50955;DHT22;36966;48.064;-0.792;2024-02-21T03:18:38;17.60;54.70
50955;DHT22;36966;48.064;-0.792;2024-02-21T03:20:58;17.70;54.70
50955;DHT22;36966;48.064;-0.792;2024-02-21T03:23:17;17.60;54.70
50955;DHT22;36966;48.064;-0.792;2024-02-21T03:25:36;17.60;54.70
50955;DHT22;36966;48.064;-0.792;2024-02-21T03:27:55;17.60;54.70
50955;DHT22;36966;48.064;-0.792;2024-02-21T03:30:15;17.60;54.80
50955;DHT22;36966;48.064;-0.792;2024-02-21T03:32:34;17.60;54.80
50955;DHT22;36966;48.064;-0.792;2024-02-21T03:34:53;17.60;54.70
50955;DHT22;36966;48.064;-0.792;2024-02-21T03:37:14;17.60;54.70
50955;DHT22;36966;48.064;-0.792;2024-02-21T03:39:33;17.60;54.70
50955;DHT22;36966;48.064;-0.792;2024-02-21T03:41:52;17.60;54.70
50955;DHT22;36966;48.064;-0.792;2024-02-21T03:44:12;17.50;54.70
50955;DHT22;36966;48.064;-0.792;2024-02-21T03:46:32;17.50;54.70
50955;DHT22;36966;48.064;-0.792;2024-02-21T03:48:51;17.50;54.70
50955;DHT22;36966;48.064;-0.792;2024-02-21T03:51:10;17.60;54.70
50955;DHT22;36966;48.064;-0.792;2024-02-21T03:53:29;17.50;54.60
50955;DHT22;36966;48.064;-0.792;2024-02-21T03:55:49;17.50;54.60
50955;DHT22;36966;48.064;-0.792;2024-02-21T03:58:08;17.50;54.60
50955;DHT22;36966;48.064;-0.792;2024-02-21T04:00:27;17.50;54.60
50955;DHT22;36966;48.064;-0.792;2024-02-21T04:02:46;17.50;54.60
50955;DHT22;36966;48.064;-0.792;2024-02-21T04:05:05;17.60;54.60
50955;DHT22;36966;48.064;-0.792;2024-02-21T04:07:25;17.50;54.60
50955;DHT22;36966;48.064;-0.792;2024-02-21T04:09:44;17.50;54.60
50955;DHT22;36966;48.064;-0.792;2024-02-21T04:12:03;17.50;54.60
50955;DHT22;36966;48.064;-0.792;2024-02-21T04:14:23;17.50;54.60
50955;DHT22;36966;48.064;-0.792;2024-02-21T04:16:42;17.50;54.70
50955;DHT22;36966;48.064;-0.792;2024-02-21T04:19:01;17.50;54.60
50955;DHT22;36966;48.064;-0.792;2024-02-21T04:21:21;17.50;54.60
50955;DHT22;36966;48.064;-0.792;2024-02-21T04:23:40;17.50;54.60
50955;DHT22;36966;48.064;-0.792;2024-02-21T04:25:59;17.50;54.60
50955;DHT22;36966;48.064;-0.792;2024-02-21T04:28:18;17.50;54.60
50955;DHT22;36966;48.064;-0.792;2024-02-21T04:30:38;17.50;54.60
50955;DHT22;36966;48.064;-0.792;2024-02-21T04:32:57;17.50;54.60
50955;DHT22;36966;48.064;-0.792;2024-02-21T04:35:16;17.50;54.60
50955;DHT22;36966;48.064;-0.792;2024-02-21T04:37:36;17.50;54.60
50955;DHT22;36966;48.064;-0.792;2024-02-21T04:39:55;17.50;54.60
50955;DHT22;36966;48.064;-0.792;2024-02-21T04:42:14;17.50;54.60
50955;DHT22;36966;48.064;-0.792;2024-02-21T04:44:34;17.40;54.60
50955;DHT22;36966;48.064;-0.792;2024-02-21T04:46:53;17.50;54.50
50955;DHT22;36966;48.064;-0.792;2024-02-21T04:49:13;17.50;54.60
50955;DHT22;36966;48.064;-0.792;2024-02-21T04:51:32;17.50;54.60
50955;DHT22;36966;48.064;-0.792;2024-02-21T04:53:51;17.50;54.50
50955;DHT22;36966;48.064;-0.792;2024-02-21T04:56:10;17.50;54.60
50955;DHT22;36966;48.064;-0.792;2024-02-21T04:58:30;17.50;54.60
50955;DHT22;36966;48.064;-0.792;2024-02-21T05:00:49;17.50;54.50
50955;DHT22;36966;48.064;-0.792;2024-02-21T05:03:08;17.50;54.60
50955;DHT22;36966;48.064;-0.792;2024-02-21T05:05:28;17.50;54.60
50955;DHT22;36966;48.064;-0.792;2024-02-21T05:07:47;17.50;54.60
50955;DHT22;36966;48.064;-0.792;2024-02-21T05:10:07;17.50;54.60
50955;DHT22;36966;48.064;-0.792;2024-02-21T05:12:26;17.50;54.60
50955;DHT22;36966;48.064;-0.792;2024-02-21T05:14:45;17.40;54.60
50955;DHT22;36966;48.064;-0.792;2024-02-21T05:17:04;17.50;54.60
50955;DHT22;36966;48.064;-0.792;2024-02-21T05:19:24;17.40;54.60
50955;DHT22;36966;48.064;-0.792;2024-02-21T05:21:43;17.40;54.70
50955;DHT22;36966;48.064;-0.792;2024-02-21T05:24:02;17.40;54.70
50955;DHT22;36966;48.064;-0.792;2024-02-21T05:26:25;17.40;54.70
50955;DHT22;36966;48.064;-0.792;2024-02-21T05:28:44;17.40;54.70
50955;DHT22;36966;48.064;-0.792;2024-02-21T05:31:04;17.40;54.80
50955;DHT22;36966;48.064;-0.792;2024-02-21T05:33:23;17.40;54.70
50955;DHT22;36966;48.064;-0.792;2024-02-21T05:35:42;17.40;54.70
50955;DHT22;36966;48.064;-0.792;2024-02-21T05:38:02;17.40;54.70
50955;DHT22;36966;48.064;-0.792;2024-02-21T05:40:25;17.40;54.70
50955;DHT22;36966;48.064;-0.792;2024-02-21T05:42:45;17.40;54.80
50955;DHT22;36966;48.064;-0.792;2024-02-21T05:45:04;17.40;54.70
50955;DHT22;36966;48.064;-0.792;2024-02-21T05:47:23;17.40;54.80
50955;DHT22;36966;48.064;-0.792;2024-02-21T05:49:43;17.40;54.70
50955;DHT22;36966;48.064;-0.792;2024-02-21T05:52:02;17.40;54.80
50955;DHT22;36966;48.064;-0.792;2024-02-21T05:54:21;17.40;54.80
50955;DHT22;36966;48.064;-0.792;2024-02-21T05:56:44;17.40;54.80
50955;DHT22;36966;48.064;-0.792;2024-02-21T05:59:03;17.40;54.80
50955;DHT22;36966;48.064;-0.792;2024-02-21T06:01:22;17.40;54.80
50955;DHT22;36966;48.064;-0.792;2024-02-21T06:03:42;17.40;54.90
50955;DHT22;36966;48.064;-0.792;2024-02-21T06:06:01;17.40;54.90
50955;DHT22;36966;48.064;-0.792;2024-02-21T06:08:20;17.40;54.80
50955;DHT22;36966;48.064;-0.792;2024-02-21T06:10:40;17.40;55.00
50955;DHT22;36966;48.064;-0.792;2024-02-21T06:12:59;17.30;54.90
50955;DHT22;36966;48.064;-0.792;2024-02-21T06:15:18;17.40;54.90
50955;DHT22;36966;48.064;-0.792;2024-02-21T06:17:37;17.30;54.90
50955;DHT22;36966;48.064;-0.792;2024-02-21T06:19:57;17.40;54.90
50955;DHT22;36966;48.064;-0.792;2024-02-21T06:22:16;17.30;55.00
50955;DHT22;36966;48.064;-0.792;2024-02-21T06:24:35;17.40;54.90
50955;DHT22;36966;48.064;-0.792;2024-02-21T06:26:55;17.30;54.90
50955;DHT22;36966;48.064;-0.792;2024-02-21T06:29:15;17.30;55.00
50955;DHT22;36966;48.064;-0.792;2024-02-21T06:31:34;17.30;54.90
50955;DHT22;36966;48.064;-0.792;2024-02-21T06:33:53;17.30;55.00
50955;DHT22;36966;48.064;-0.792;2024-02-21T06:36:13;17.30;55.10
50955;DHT22;36966;48.064;-0.792;2024-02-21T06:38:32;17.30;55.00
50955;DHT22;36966;48.064;-0.792;2024-02-21T06:40:52;17.30;55.00
50955;DHT22;36966;48.064;-0.792;2024-02-21T06:43:13;17.30;55.00
50955;DHT22;36966;48.064;-0.792;2024-02-21T06:45:32;17.30;55.00
50955;DHT22;36966;48.064;-0.792;2024-02-21T06:47:51;17.30;55.00
50955;DHT22;36966;48.064;-0.792;2024-02-21T06:50:11;17.30;55.20
50955;DHT22;36966;48.064;-0.792;2024-02-21T06:52:30;17.30;55.10
50955;DHT22;36966;48.064;-0.792;2024-02-21T06:54:50;17.30;55.00
50955;DHT22;36966;48.064;-0.792;2024-02-21T06:57:09;17.30;55.10
50955;DHT22;36966;48.064;-0.792;2024-02-21T06:59:29;17.30;55.20
50955;DHT22;36966;48.064;-0.792;2024-02-21T07:01:48;17.30;55.10
50955;DHT22;36966;48.064;-0.792;2024-02-21T07:04:08;17.30;55.10
50955;DHT22;36966;48.064;-0.792;2024-02-21T07:06:27;17.30;55.10
50955;DHT22;36966;48.064;-0.792;2024-02-21T07:08:46;17.30;55.10
50955;DHT22;36966;48.064;-0.792;2024-02-21T07:11:05;17.30;55.00
50955;DHT22;36966;48.064;-0.792;2024-02-21T07:13:25;17.30;55.00
50955;DHT22;36966;48.064;-0.792;2024-02-21T07:15:44;17.30;55.00
50955;DHT22;36966;48.064;-0.792;2024-02-21T07:18:04;17.30;54.90
50955;DHT22;36966;48.064;-0.792;2024-02-21T07:20:23;17.30;55.00
50955;DHT22;36966;48.064;-0.792;2024-02-21T07:22:42;17.30;55.00
50955;DHT22;36966;48.064;-0.792;2024-02-21T07:25:01;17.30;55.00
50955;DHT22;36966;48.064;-0.792;2024-02-21T07:27:21;17.30;55.00
50955;DHT22;36966;48.064;-0.792;2024-02-21T07:29:40;17.30;55.00
50955;DHT22;36966;48.064;-0.792;2024-02-21T07:31:59;17.20;55.00
50955;DHT22;36966;48.064;-0.792;2024-02-21T07:34:19;17.20;55.00
50955;DHT22;36966;48.064;-0.792;2024-02-21T07:36:38;17.20;55.00
50955;DHT22;36966;48.064;-0.792;2024-02-21T07:38:57;17.20;55.00
50955;DHT22;36966;48.064;-0.792;2024-02-21T07:41:17;17.20;55.10
50955;DHT22;36966;48.064;-0.792;2024-02-21T07:43:36;17.20;55.10
50955;DHT22;36966;48.064;-0.792;2024-02-21T07:45:55;17.20;55.10
50955;DHT22;36966;48.064;-0.792;2024-02-21T07:48:15;17.20;55.00
50955;DHT22;36966;48.064;-0.792;2024-02-21T07:50:34;17.20;55.00
50955;DHT22;36966;48.064;-0.792;2024-02-21T07:52:54;17.20;55.00
50955;DHT22;36966;48.064;-0.792;2024-02-21T07:55:13;17.20;55.00
50955;DHT22;36966;48.064;-0.792;2024-02-21T07:57:32;17.20;55.00
50955;DHT22;36966;48.064;-0.792;2024-02-21T07:59:51;17.20;55.00
50955;DHT22;36966;48.064;-0.792;2024-02-21T08:02:11;17.20;55.00
50955;DHT22;36966;48.064;-0.792;2024-02-21T08:04:30;17.20;54.90
50955;DHT22;36966;48.064;-0.792;2024-02-21T08:06:53;17.20;54.90
50955;DHT22;36966;48.064;-0.792;2024-02-21T08:09:13;17.20;54.90
50955;DHT22;36966;48.064;-0.792;2024-02-21T08:11:32;17.20;55.00
50955;DHT22;36966;48.064;-0.792;2024-02-21T08:13:51;17.20;54.90
50955;DHT22;36966;48.064;-0.792;2024-02-21T08:16:11;17.20;55.00
50955;DHT22;36966;48.064;-0.792;2024-02-21T08:18:30;17.20;54.90
50955;DHT22;36966;48.064;-0.792;2024-02-21T08:20:49;17.20;54.90
50955;DHT22;36966;48.064;-0.792;2024-02-21T08:23:08;17.20;55.00
50955;DHT22;36966;48.064;-0.792;2024-02-21T08:25:28;17.20;54.90
50955;DHT22;36966;48.064;-0.792;2024-02-21T08:27:47;17.10;55.00
50955;DHT22;36966;48.064;-0.792;2024-02-21T08:30:06;17.20;54.90
50955;DHT22;36966;48.064;-0.792;2024-02-21T08:32:28;17.20;54.90
50955;DHT22;36966;48.064;-0.792;2024-02-21T08:34:47;17.20;54.80
50955;DHT22;36966;48.064;-0.792;2024-02-21T08:37:06;17.20;56.80
50955;DHT22;36966;48.064;-0.792;2024-02-21T08:39:27;17.30;57.90
50955;DHT22;36966;48.064;-0.792;2024-02-21T08:41:47;17.40;57.90
50955;DHT22;36966;48.064;-0.792;2024-02-21T08:44:07;17.40;58.80
50955;DHT22;36966;48.064;-0.792;2024-02-21T08:46:26;17.50;59.20
50955;DHT22;36966;48.064;-0.792;2024-02-21T08:48:45;17.50;59.70
50955;DHT22;36966;48.064;-0.792;2024-02-21T08:51:05;17.50;59.80
50955;DHT22;36966;48.064;-0.792;2024-02-21T08:53:24;17.40;60.60
50955;DHT22;36966;48.064;-0.792;2024-02-21T08:55:44;17.30;57.80
50955;DHT22;36966;48.064;-0.792;2024-02-21T08:58:04;17.10;58.90
50955;DHT22;36966;48.064;-0.792;2024-02-21T09:00:23;17.20;58.50
50955;DHT22;36966;48.064;-0.792;2024-02-21T09:02:46;17.20;58.00
50955;DHT22;36966;48.064;-0.792;2024-02-21T09:05:05;17.00;57.50
50955;DHT22;36966;48.064;-0.792;2024-02-21T09:07:24;17.10;57.80
50955;DHT22;36966;48.064;-0.792;2024-02-21T09:09:43;17.10;56.90
50955;DHT22;36966;48.064;-0.792;2024-02-21T09:12:03;17.00;56.80
50955;DHT22;36966;48.064;-0.792;2024-02-21T09:14:25;17.00;56.80
50955;DHT22;36966;48.064;-0.792;2024-02-21T09:16:44;17.00;57.40
50955;DHT22;36966;48.064;-0.792;2024-02-21T09:19:03;17.00;56.90
50955;DHT22;36966;48.064;-0.792;2024-02-21T09:21:23;17.00;57.30
50955;DHT22;36966;48.064;-0.792;2024-02-21T09:23:42;17.00;56.90
50955;DHT22;36966;48.064;-0.792;2024-02-21T09:26:01;16.90;57.10
50955;DHT22;36966;48.064;-0.792;2024-02-21T09:28:23;16.80;57.20
50955;DHT22;36966;48.064;-0.792;2024-02-21T09:30:42;16.80;57.50
50955;DHT22;36966;48.064;-0.792;2024-02-21T09:33:01;16.80;57.10
50955;DHT22;36966;48.064;-0.792;2024-02-21T09:35:21;16.70;57.70
50955;DHT22;36966;48.064;-0.792;2024-02-21T09:37:45;16.80;58.10
50955;DHT22;36966;48.064;-0.792;2024-02-21T09:40:04;16.80;57.90
50955;DHT22;36966;48.064;-0.792;2024-02-21T09:42:26;16.80;58.30
50955;DHT22;36966;48.064;-0.792;2024-02-21T09:44:46;16.80;57.80
50955;DHT22;36966;48.064;-0.792;2024-02-21T09:49:43;16.90;57.40
50955;DHT22;36966;48.064;-0.792;2024-02-21T09:52:04;16.80;57.50
50955;DHT22;36966;48.064;-0.792;2024-02-21T09:54:24;16.90;59.20
50955;DHT22;36966;48.064;-0.792;2024-02-21T09:56:47;16.90;58.30
50955;DHT22;36966;48.064;-0.792;2024-02-21T09:59:06;16.90;59.40
50955;DHT22;36966;48.064;-0.792;2024-02-21T10:01:25;17.00;59.50
50955;DHT22;36966;48.064;-0.792;2024-02-21T10:03:45;17.00;58.80
50955;DHT22;36966;48.064;-0.792;2024-02-21T10:06:04;16.80;58.20
50955;DHT22;36966;48.064;-0.792;2024-02-21T10:08:23;16.80;58.10
50955;DHT22;36966;48.064;-0.792;2024-02-21T10:10:43;16.70;58.50
50955;DHT22;36966;48.064;-0.792;2024-02-21T10:13:02;16.60;58.90
50955;DHT22;36966;48.064;-0.792;2024-02-21T10:15:22;16.70;58.50
50955;DHT22;36966;48.064;-0.792;2024-02-21T10:17:41;16.80;58.00
50955;DHT22;36966;48.064;-0.792;2024-02-21T10:20:07;16.80;57.70
50955;DHT22;36966;48.064;-0.792;2024-02-21T10:22:27;16.90;57.50
50955;DHT22;36966;48.064;-0.792;2024-02-21T10:24:49;17.00;57.40
50955;DHT22;36966;48.064;-0.792;2024-02-21T10:27:09;17.00;57.20
50955;DHT22;36966;48.064;-0.792;2024-02-21T10:29:30;17.00;57.00
50955;DHT22;36966;48.064;-0.792;2024-02-21T10:31:49;17.00;57.00
50955;DHT22;36966;48.064;-0.792;2024-02-21T10:34:08;17.10;57.00
50955;DHT22;36966;48.064;-0.792;2024-02-21T10:36:27;17.00;57.10
50955;DHT22;36966;48.064;-0.792;2024-02-21T10:38:47;17.00;57.10
50955;DHT22;36966;48.064;-0.792;2024-02-21T10:41:07;17.00;57.00
50955;DHT22;36966;48.064;-0.792;2024-02-21T10:43:26;17.10;56.90
50955;DHT22;36966;48.064;-0.792;2024-02-21T10:45:46;17.10;57.10
50955;DHT22;36966;48.064;-0.792;2024-02-21T10:50:26;17.00;57.80
50955;DHT22;36966;48.064;-0.792;2024-02-21T10:53:03;17.00;57.80
50955;DHT22;36966;48.064;-0.792;2024-02-21T10:55:49;17.10;57.80
50955;DHT22;36966;48.064;-0.792;2024-02-21T10:58:11;17.10;57.80
50955;DHT22;36966;48.064;-0.792;2024-02-21T11:00:30;17.10;57.80
50955;DHT22;36966;48.064;-0.792;2024-02-21T11:02:49;17.10;57.60
50955;DHT22;36966;48.064;-0.792;2024-02-21T11:05:08;17.10;57.70
50955;DHT22;36966;48.064;-0.792;2024-02-21T11:07:28;17.10;57.70
50955;DHT22;36966;48.064;-0.792;2024-02-21T11:09:51;17.10;57.70
50955;DHT22;36966;48.064;-0.792;2024-02-21T11:12:11;17.10;59.00
50955;DHT22;36966;48.064;-0.792;2024-02-21T11:14:31;17.10;60.90
50955;DHT22;36966;48.064;-0.792;2024-02-21T11:16:55;17.20;59.70
50955;DHT22;36966;48.064;-0.792;2024-02-21T11:21:37;17.10;59.40
50955;DHT22;36966;48.064;-0.792;2024-02-21T11:23:56;17.10;59.10
50955;DHT22;36966;48.064;-0.792;2024-02-21T11:26:18;17.10;58.90
50955;DHT22;36966;48.064;-0.792;2024-02-21T11:28:38;17.10;58.80
50955;DHT22;36966;48.064;-0.792;2024-02-21T11:31:13;17.10;58.60
50955;DHT22;36966;48.064;-0.792;2024-02-21T11:33:35;17.20;58.60
50955;DHT22;36966;48.064;-0.792;2024-02-21T11:35:54;17.00;58.90
50955;DHT22;36966;48.064;-0.792;2024-02-21T11:38:13;17.10;58.70
50955;DHT22;36966;48.064;-0.792;2024-02-21T11:40:38;17.10;58.60
50955;DHT22;36966;48.064;-0.792;2024-02-21T11:42:59;17.10;58.60
50955;DHT22;36966;48.064;-0.792;2024-02-21T11:45:18;17.10;58.60
50955;DHT22;36966;48.064;-0.792;2024-02-21T11:47:42;17.10;58.60
50955;DHT22;36966;48.064;-0.792;2024-02-21T11:50:01;17.10;58.70
50955;DHT22;36966;48.064;-0.792;2024-02-21T11:52:24;17.10;58.70
50955;DHT22;36966;48.064;-0.792;2024-02-21T11:54:44;17.10;58.80
50955;DHT22;36966;48.064;-0.792;2024-02-21T11:57:03;17.10;58.70
50955;DHT22;36966;48.064;-0.792;2024-02-21T11:59:25;17.10;58.70
50955;DHT22;36966;48.064;-0.792;2024-02-21T12:01:45;17.10;58.70
50955;DHT22;36966;48.064;-0.792;2024-02-21T12:04:05;17.10;58.70
50955;DHT22;36966;48.064;-0.792;2024-02-21T12:06:24;17.10;58.60
50955;DHT22;36966;48.064;-0.792;2024-02-21T12:08:43;17.10;58.70
50955;DHT22;36966;48.064;-0.792;2024-02-21T12:11:02;17.10;58.70
50955;DHT22;36966;48.064;-0.792;2024-02-21T12:13:22;17.20;58.70
50955;DHT22;36966;48.064;-0.792;2024-02-21T12:15:41;17.20;58.90
50955;DHT22;36966;48.064;-0.792;2024-02-21T12:18:06;17.10;58.80
50955;DHT22;36966;48.064;-0.792;2024-02-21T12:20:25;17.10;58.90
50955;DHT22;36966;48.064;-0.792;2024-02-21T12:22:44;17.10;59.00
50955;DHT22;36966;48.064;-0.792;2024-02-21T12:25:04;17.10;58.80
50955;DHT22;36966;48.064;-0.792;2024-02-21T12:27:24;17.10;59.00
50955;DHT22;36966;48.064;-0.792;2024-02-21T12:29:44;17.10;59.00
50955;DHT22;36966;48.064;-0.792;2024-02-21T12:32:04;17.10;59.00
50955;DHT22;36966;48.064;-0.792;2024-02-21T12:34:23;17.10;59.00
50955;DHT22;36966;48.064;-0.792;2024-02-21T12:36:43;17.20;59.20
50955;DHT22;36966;48.064;-0.792;2024-02-21T12:39:03;17.10;59.10
50955;DHT22;36966;48.064;-0.792;2024-02-21T12:41:23;17.10;59.10
50955;DHT22;36966;48.064;-0.792;2024-02-21T12:43:44;17.20;59.20
50955;DHT22;36966;48.064;-0.792;2024-02-21T12:46:03;17.10;59.20
50955;DHT22;36966;48.064;-0.792;2024-02-21T12:48:23;17.10;59.10
50955;DHT22;36966;48.064;-0.792;2024-02-21T12:50:49;17.20;59.30
50955;DHT22;36966;48.064;-0.792;2024-02-21T12:53:11;17.10;59.20
50955;DHT22;36966;48.064;-0.792;2024-02-21T12:55:30;17.10;59.30
50955;DHT22;36966;48.064;-0.792;2024-02-21T12:57:50;17.20;59.30
50955;DHT22;36966;48.064;-0.792;2024-02-21T13:00:09;17.10;59.40
50955;DHT22;36966;48.064;-0.792;2024-02-21T13:02:30;17.10;59.30
50955;DHT22;36966;48.064;-0.792;2024-02-21T13:04:49;17.10;59.60
50955;DHT22;36966;48.064;-0.792;2024-02-21T13:07:08;17.10;59.70
50955;DHT22;36966;48.064;-0.792;2024-02-21T13:09:28;17.10;59.60
50955;DHT22;36966;48.064;-0.792;2024-02-21T13:11:47;17.10;59.70
50955;DHT22;36966;48.064;-0.792;2024-02-21T13:14:06;17.10;59.70
50955;DHT22;36966;48.064;-0.792;2024-02-21T13:16:25;17.10;59.90
50955;DHT22;36966;48.064;-0.792;2024-02-21T13:18:47;17.10;59.70
50955;DHT22;36966;48.064;-0.792;2024-02-21T13:21:07;17.10;59.80
50955;DHT22;36966;48.064;-0.792;2024-02-21T13:23:26;17.20;59.70
50955;DHT22;36966;48.064;-0.792;2024-02-21T13:25:45;17.10;59.70
50955;DHT22;36966;48.064;-0.792;2024-02-21T13:28:05;17.10;59.90
50955;DHT22;36966;48.064;-0.792;2024-02-21T13:30:24;17.10;59.80
50955;DHT22;36966;48.064;-0.792;2024-02-21T13:32:44;17.20;59.70
50955;DHT22;36966;48.064;-0.792;2024-02-21T13:35:07;17.10;59.80
50955;DHT22;36966;48.064;-0.792;2024-02-21T13:37:27;17.10;59.80
50955;DHT22;36966;48.064;-0.792;2024-02-21T13:39:47;17.10;59.80
50955;DHT22;36966;48.064;-0.792;2024-02-21T13:42:07;17.10;60.00
50955;DHT22;36966;48.064;-0.792;2024-02-21T13:44:26;17.10;60.10
50955;DHT22;36966;48.064;-0.792;2024-02-21T13:46:45;17.10;60.20
50955;DHT22;36966;48.064;-0.792;2024-02-21T13:49:05;17.10;60.10
50955;DHT22;36966;48.064;-0.792;2024-02-21T13:51:25;17.10;60.10
50955;DHT22;36966;48.064;-0.792;2024-02-21T13:53:44;17.10;60.10
50955;DHT22;36966;48.064;-0.792;2024-02-21T13:56:03;17.10;60.30
50955;DHT22;36966;48.064;-0.792;2024-02-21T13:58:22;17.10;60.10
50955;DHT22;36966;48.064;-0.792;2024-02-21T14:00:42;17.10;60.10
50955;DHT22;36966;48.064;-0.792;2024-02-21T14:03:01;17.10;60.20
50955;DHT22;36966;48.064;-0.792;2024-02-21T14:05:20;17.10;60.10
50955;DHT22;36966;48.064;-0.792;2024-02-21T14:07:40;17.10;60.10
50955;DHT22;36966;48.064;-0.792;2024-02-21T14:09:59;17.10;60.20
50955;DHT22;36966;48.064;-0.792;2024-02-21T14:12:18;17.10;60.20
50955;DHT22;36966;48.064;-0.792;2024-02-21T14:14:39;17.10;60.10
50955;DHT22;36966;48.064;-0.792;2024-02-21T14:17:00;17.10;60.10
50955;DHT22;36966;48.064;-0.792;2024-02-21T14:19:19;17.10;60.20
50955;DHT22;36966;48.064;-0.792;2024-02-21T14:21:40;17.10;60.30
50955;DHT22;36966;48.064;-0.792;2024-02-21T14:23:59;17.10;60.20
50955;DHT22;36966;48.064;-0.792;2024-02-21T14:26:21;17.10;60.20
50955;DHT22;36966;48.064;-0.792;2024-02-21T14:28:40;17.10;60.50
50955;DHT22;36966;48.064;-0.792;2024-02-21T14:31:00;17.10;60.30
50955;DHT22;36966;48.064;-0.792;2024-02-21T14:33:19;17.10;60.30
50955;DHT22;36966;48.064;-0.792;2024-02-21T14:35:39;17.10;60.20